Time;durP1;ratioP1;P1;durP2;ratioP2;P2;SDS_P1;SDS_P2;PMS_P1;PMS_P2;Temp;Humidity;BMP_temperature;BMP_pressure;BME280_temperature;BME280_humidity;BME280_pressure;Samples;Min_cycle;Max_cycle;Signal;HPM_P1;HPM_P2
2023/12/14 00:00:53;;;;;;;9.67;5.33;;;;;;;;;;5056656;28;20495;-72
2023/12/14 00:03:19;;;;;;;8.90;5.00;;;;;;;;;;5074488;28;20427;-72
2023/12/14 00:05:46;;;;;;;8.70;5.57;;;;;;;;;;5074424;28;20432;-72
2023/12/14 00:08:13;;;;;;;9.77;5.37;;;;;;;;;;5074388;28;20494;-72
2023/12/14 00:10:39;;;;;;;8.53;5.17;;;;;;;;;;5072739;28;20899;-72
2023/12/14 00:13:07;;;;;;;8.57;5.63;;;;;;;;;;5074502;28;20490;-72
2023/12/14 00:15:34;;;;;;;8.13;5.33;;;;;;;;;;5073069;28;20854;-72
2023/12/14 00:18:18;;;;;;;8.27;5.20;;;;;;;;;;5073013;28;20472;-72
2023/12/14 00:20:45;;;;;;;9.40;5.20;;;;;;;;;;5074563;28;20775;-71
2023/12/14 00:23:11;;;;;;;10.17;4.77;;;;;;;;;;5072614;28;20495;-72
2023/12/14 00:25:38;;;;;;;8.83;4.90;;;;;;;;;;5072728;28;20439;-72
2023/12/14 00:28:05;;;;;;;6.90;4.63;;;;;;;;;;5072881;28;20427;-72
2023/12/14 00:30:48;;;;;;;6.93;4.07;;;;;;;;;;5073330;28;20413;-72
2023/12/14 00:33:15;;;;;;;7.90;4.57;;;;;;;;;;5074079;28;20420;-72
2023/12/14 00:35:59;;;;;;;9.07;4.20;;;;;;;;;;5072965;28;20538;-72
2023/12/14 00:38:26;;;;;;;8.10;4.40;;;;;;;;;;5073691;28;20444;-72
2023/12/14 00:41:09;;;;;;;7.33;4.60;;;;;;;;;;5073331;28;20396;-72
2023/12/14 00:43:38;;;;;;;8.97;5.00;;;;;;;;;;5056341;28;20416;-72
2023/12/14 00:46:04;;;;;;;7.23;4.53;;;;;;;;;;5074132;28;20424;-72
2023/12/14 00:48:31;;;;;;;9.47;5.57;;;;;;;;;;5073863;28;20428;-72
2023/12/14 00:50:58;;;;;;;8.33;4.90;;;;;;;;;;5072742;28;20737;-72
2023/12/14 00:53:24;;;;;;;10.80;5.33;;;;;;;;;;5073498;28;20419;-72
2023/12/14 00:55:51;;;;;;;7.43;4.87;;;;;;;;;;5072637;28;20542;-72
2023/12/14 00:58:17;;;;;;;8.33;4.53;;;;;;;;;;5073865;28;20413;-72
2023/12/14 01:00:44;;;;;;;7.03;4.27;;;;;;;;;;5090326;28;20477;-72
2023/12/14 01:03:11;;;;;;;7.20;3.97;;;;;;;;;;5076057;28;20431;-72
2023/12/14 01:05:37;;;;;;;5.63;3.67;;;;;;;;;;5075741;28;20426;-72
2023/12/14 01:08:22;;;;;;;5.20;3.70;;;;;;;;;;5078453;28;20378;-72
2023/12/14 01:10:48;;;;;;;6.47;3.80;;;;;;;;;;5076205;28;20422;-72
2023/12/14 01:49:56;;;;;;;4.40;2.83;;;;;;;;;;5094197;28;20387;-72
2023/12/14 01:52:23;;;;;;;3.67;2.30;;;;;;;;;;5075199;28;20498;-72
2023/12/14 01:54:50;;;;;;;3.73;2.77;;;;;;;;;;5093176;28;20431;-72
2023/12/14 01:57:16;;;;;;;4.63;2.43;;;;;;;;;;5092159;28;20471;-72
2023/12/14 01:59:43;;;;;;;3.33;2.43;;;;;;;;;;5078413;28;20278;-72
2023/12/14 02:02:10;;;;;;;3.60;2.43;;;;;;;;;;5062246;28;20535;-72
2023/12/14 02:04:37;;;;;;;3.77;2.33;;;;;;;;;;5078770;28;20430;-72
2023/12/14 02:07:04;;;;;;;5.33;2.63;;;;;;;;;;5078861;28;20442;-73
2023/12/14 02:09:31;;;;;;;3.30;2.13;;;;;;;;;;5078970;28;20424;-72
2023/12/14 02:11:58;;;;;;;5.00;2.57;;;;;;;;;;5096855;28;20420;-72
2023/12/14 02:14:24;;;;;;;3.20;2.23;;;;;;;;;;5096848;28;20441;-72
2023/12/14 02:16:51;;;;;;;4.20;2.37;;;;;;;;;;5079238;28;20965;-72
2023/12/14 02:19:17;;;;;;;5.33;2.60;;;;;;;;;;5097059;28;20526;-72
2023/12/14 02:22:01;;;;;;;3.37;2.03;;;;;;;;;;5081153;28;20380;-72
2023/12/14 02:24:28;;;;;;;3.40;2.20;;;;;;;;;;5079249;28;20750;-72
2023/12/14 02:26:55;;;;;;;3.77;2.10;;;;;;;;;;5078932;28;20514;-72
2023/12/14 02:29:29;;;;;;;4.60;2.70;;;;;;;;;;5096331;28;20743;-72
2023/12/14 02:32:13;;;;;;;3.83;2.50;;;;;;;;;;5096490;28;20395;-72
2023/12/14 02:34:40;;;;;;;4.40;2.67;;;;;;;;;;5096200;28;20512;-72
2023/12/14 02:37:08;;;;;;;3.83;2.80;;;;;;;;;;5096321;28;20450;-72
2023/12/14 02:39:34;;;;;;;4.67;3.00;;;;;;;;;;5096923;28;20909;-72
2023/12/14 02:42:01;;;;;;;6.23;3.30;;;;;;;;;;5078673;28;20506;-72
2023/12/14 02:44:27;;;;;;;4.23;3.00;;;;;;;;;;5061505;28;20419;-72
2023/12/14 02:46:54;;;;;;;4.83;2.80;;;;;;;;;;5078623;28;20507;-73
2023/12/14 02:49:21;;;;;;;4.70;2.77;;;;;;;;;;5096451;28;20834;-72
2023/12/14 02:51:48;;;;;;;5.50;3.23;;;;;;;;;;5061476;28;20462;-72
2023/12/14 02:54:14;;;;;;;4.23;2.60;;;;;;;;;;5077906;28;20434;-72
2023/12/14 02:56:41;;;;;;;5.10;3.10;;;;;;;;;;5095637;28;20444;-72
2023/12/14 02:59:07;;;;;;;3.80;2.70;;;;;;;;;;5095367;28;20528;-72
2023/12/14 03:01:34;;;;;;;4.20;2.43;;;;;;;;;;5096510;28;20464;-73
2023/12/14 03:04:01;;;;;;;3.27;2.40;;;;;;;;;;5077663;28;20531;-72
2023/12/14 03:06:28;;;;;;;5.93;3.17;;;;;;;;;;5096324;28;20435;-72
2023/12/14 03:08:54;;;;;;;4.30;2.97;;;;;;;;;;5077620;28;20461;-72
2023/12/14 03:11:22;;;;;;;3.80;2.63;;;;;;;;;;5077212;28;20419;-72
2023/12/14 03:13:49;;;;;;;4.77;2.67;;;;;;;;;;5061871;28;20419;-72
2023/12/14 03:16:19;;;;;;;3.83;2.47;;;;;;;;;;5077844;28;20533;-72
2023/12/14 03:18:45;;;;;;;5.77;2.70;;;;;;;;;;5095547;28;20744;-72
2023/12/14 03:21:12;;;;;;;4.27;2.50;;;;;;;;;;5077632;28;20426;-72
2023/12/14 03:23:39;;;;;;;4.77;2.70;;;;;;;;;;5077226;28;20184;-72
2023/12/14 03:26:05;;;;;;;4.53;2.33;;;;;;;;;;5078115;28;20432;-73
2023/12/14 03:28:32;;;;;;;6.37;2.50;;;;;;;;;;5077438;28;20431;-73
2023/12/14 03:30:59;;;;;;;5.90;2.57;;;;;;;;;;5095584;28;20451;-73
2023/12/14 03:33:25;;;;;;;3.23;2.30;;;;;;;;;;5060529;28;20968;-72
2023/12/14 03:35:52;;;;;;;4.47;2.43;;;;;;;;;;5077557;28;20419;-72
2023/12/14 03:38:19;;;;;;;4.43;2.30;;;;;;;;;;5095001;28;20181;-72
2023/12/14 03:40:46;;;;;;;3.93;2.27;;;;;;;;;;5094930;28;20525;-72
2023/12/14 03:43:29;;;;;;;4.10;2.80;;;;;;;;;;5094905;28;20380;-73
2023/12/14 03:45:56;;;;;;;6.47;2.90;;;;;;;;;;5094728;28;20420;-73
2023/12/14 03:48:23;;;;;;;4.20;2.70;;;;;;;;;;5076849;28;20419;-72
2023/12/14 03:50:49;;;;;;;5.73;2.83;;;;;;;;;;5060236;28;20804;-72
2023/12/14 03:53:17;;;;;;;3.83;2.67;;;;;;;;;;5076646;28;20809;-72
2023/12/14 03:55:45;;;;;;;5.10;3.07;;;;;;;;;;5076652;28;20447;-72
2023/12/14 03:58:12;;;;;;;6.20;3.10;;;;;;;;;;5059347;28;20506;-74
2023/12/14 04:00:39;;;;;;;8.53;4.13;;;;;;;;;;5095265;28;20589;-71
2023/12/14 04:03:05;;;;;;;5.63;3.60;;;;;;;;;;5095516;28;20427;-71
2023/12/14 04:05:32;;;;;;;5.40;3.10;;;;;;;;;;5076389;28;20985;-74
2023/12/14 04:07:59;;;;;;;9.03;4.73;;;;;;;;;;5059105;28;20432;-71
2023/12/14 04:10:26;;;;;;;18.27;8.60;;;;;;;;;;5084351;28;20447;-72
2023/12/14 04:12:53;;;;;;;23.10;9.40;;;;;;;;;;5067789;28;20427;-72
2023/12/14 04:15:20;;;;;;;13.70;5.47;;;;;;;;;;5067561;28;20423;-72
2023/12/14 04:17:47;;;;;;;12.57;5.60;;;;;;;;;;5085116;28;20942;-72
2023/12/14 04:20:15;;;;;;;9.97;4.70;;;;;;;;;;5085593;28;20756;-72
2023/12/14 04:22:43;;;;;;;9.53;4.40;;;;;;;;;;5067164;28;20242;-73
2023/12/14 04:25:10;;;;;;;6.60;3.60;;;;;;;;;;5066739;28;20441;-73
2023/12/14 04:27:37;;;;;;;6.93;3.90;;;;;;;;;;5066510;28;20477;-74
2023/12/14 04:30:04;;;;;;;5.57;3.53;;;;;;;;;;5066644;28;20430;-72
2023/12/14 04:32:31;;;;;;;9.23;4.67;;;;;;;;;;5085139;28;20423;-72
2023/12/14 04:34:58;;;;;;;8.80;4.73;;;;;;;;;;5050239;28;20412;-71
2023/12/14 04:37:25;;;;;;;10.50;5.10;;;;;;;;;;5084833;28;20459;-73
2023/12/14 04:39:51;;;;;;;12.13;5.67;;;;;;;;;;5050322;28;20411;-73
2023/12/14 04:42:18;;;;;;;13.33;5.83;;;;;;;;;;5049721;28;20459;-71
2023/12/14 04:44:45;;;;;;;8.43;4.07;;;;;;;;;;5050272;28;20477;-72
2023/12/14 04:47:13;;;;;;;12.20;5.37;;;;;;;;;;5066632;28;20422;-71
2023/12/14 04:49:40;;;;;;;10.53;4.87;;;;;;;;;;5066844;28;20424;-73
2023/12/14 04:52:07;;;;;;;11.47;5.47;;;;;;;;;;5049949;28;20436;-74
2023/12/14 04:54:37;;;;;;;25.20;10.33;;;;;;;;;;5049913;28;20418;-72
2023/12/14 04:57:04;;;;;;;17.60;7.70;;;;;;;;;;5084972;28;20540;-73
2023/12/14 04:59:31;;;;;;;21.20;8.67;;;;;;;;;;5084550;28;20449;-72
2023/12/14 05:01:57;;;;;;;20.67;8.93;;;;;;;;;;5066549;28;20831;-71
2023/12/14 05:04:24;;;;;;;32.13;13.27;;;;;;;;;;5084470;28;20516;-71
2023/12/14 05:06:51;;;;;;;21.57;8.93;;;;;;;;;;5083943;28;20510;-71
2023/12/14 05:09:18;;;;;;;11.50;5.13;;;;;;;;;;5053654;28;20439;-71
2023/12/14 05:11:45;;;;;;;27.70;11.37;;;;;;;;;;5065796;28;20469;-71
2023/12/14 05:14:11;;;;;;;11.73;5.70;;;;;;;;;;5083791;28;20418;-71
2023/12/14 05:16:39;;;;;;;5.43;3.27;;;;;;;;;;5049037;28;20485;-71
2023/12/14 05:19:05;;;;;;;5.63;3.03;;;;;;;;;;5084195;28;20471;-71
2023/12/14 05:21:32;;;;;;;5.87;3.20;;;;;;;;;;5049505;28;20933;-72
2023/12/14 05:23:59;;;;;;;5.20;2.60;;;;;;;;;;5049469;28;20414;-70
2023/12/14 05:26:26;;;;;;;3.73;2.30;;;;;;;;;;5049294;28;20833;-71
2023/12/14 05:28:53;;;;;;;7.57;3.40;;;;;;;;;;5066252;28;20424;-71
2023/12/14 05:31:21;;;;;;;5.00;2.30;;;;;;;;;;5084513;28;20482;-70
2023/12/14 05:33:48;;;;;;;9.43;4.23;;;;;;;;;;5051312;28;20423;-70
2023/12/14 05:36:15;;;;;;;6.90;3.23;;;;;;;;;;5053324;28;20518;-71
2023/12/14 05:38:41;;;;;;;5.17;2.90;;;;;;;;;;5053403;28;20991;-70
2023/12/14 05:41:08;;;;;;;3.57;2.70;;;;;;;;;;5069809;28;20284;-71
2023/12/14 05:43:36;;;;;;;4.93;2.50;;;;;;;;;;5053563;28;20766;-70
2023/12/14 05:46:03;;;;;;;4.17;2.80;;;;;;;;;;5069975;28;20497;-70
2023/12/14 05:48:30;;;;;;;5.03;2.80;;;;;;;;;;5069554;28;20419;-71
2023/12/14 05:50:57;;;;;;;5.50;3.00;;;;;;;;;;5069515;28;20505;-72
2023/12/14 05:53:24;;;;;;;6.60;3.10;;;;;;;;;;5069623;28;20419;-72
2023/12/14 05:55:50;;;;;;;7.10;2.40;;;;;;;;;;5088012;28;20520;-72
2023/12/14 05:58:18;;;;;;;6.50;2.90;;;;;;;;;;5052977;28;20512;-72
2023/12/14 06:00:45;;;;;;;4.53;2.60;;;;;;;;;;5086174;28;20538;-72
2023/12/14 06:03:12;;;;;;;3.07;1.83;;;;;;;;;;5069819;28;20465;-71
2023/12/14 06:05:39;;;;;;;5.40;2.57;;;;;;;;;;5069385;28;20828;-71
2023/12/14 06:08:23;;;;;;;4.70;2.37;;;;;;;;;;5028479;28;20472;-71
2023/12/14 06:10:49;;;;;;;4.40;2.90;;;;;;;;;;5069181;28;20189;-74
2023/12/14 06:13:16;;;;;;;5.93;2.80;;;;;;;;;;5069229;28;20427;-73
2023/12/14 06:15:43;;;;;;;5.57;2.53;;;;;;;;;;5087369;28;20469;-72
2023/12/14 06:18:10;;;;;;;3.77;2.30;;;;;;;;;;5087555;28;20475;-73
2023/12/14 06:20:37;;;;;;;4.13;2.70;;;;;;;;;;5069407;28;20458;-72
2023/12/14 06:23:05;;;;;;;2.20;1.47;;;;;;;;;;5035625;28;20858;-73
2023/12/14 06:25:31;;;;;;;1.87;1.30;;;;;;;;;;5052854;28;20431;-73
2023/12/14 06:28:18;;;;;;;1.73;1.17;;;;;;;;;;5071532;28;20446;-70
2023/12/14 06:30:45;;;;;;;2.03;1.10;;;;;;;;;;5063080;28;20467;-73
2023/12/14 06:33:11;;;;;;;2.07;1.20;;;;;;;;;;5068951;28;20796;-73
2023/12/14 06:35:38;;;;;;;1.30;1.10;;;;;;;;;;5086250;28;20434;-72
2023/12/14 06:38:08;;;;;;;1.33;1.07;;;;;;;;;;5085644;28;20471;-73
2023/12/14 06:40:35;;;;;;;1.70;1.10;;;;;;;;;;5085759;28;20894;-73
2023/12/14 06:43:03;;;;;;;1.83;1.20;;;;;;;;;;5085508;28;20541;-73
2023/12/14 06:45:30;;;;;;;2.83;1.30;;;;;;;;;;5068545;28;20431;-73
2023/12/14 06:47:57;;;;;;;2.90;1.20;;;;;;;;;;5068904;28;20515;-73
2023/12/14 06:50:24;;;;;;;1.77;1.13;;;;;;;;;;5068882;28;20194;-73
2023/12/14 06:52:51;;;;;;;1.93;1.33;;;;;;;;;;5085772;28;20978;-71
2023/12/14 06:55:18;;;;;;;2.97;1.40;;;;;;;;;;5068853;28;20419;-73
2023/12/14 06:57:46;;;;;;;2.37;1.50;;;;;;;;;;5086869;28;20520;-72
2023/12/14 07:00:14;;;;;;;2.40;1.50;;;;;;;;;;5081836;28;20840;-72
2023/12/14 07:02:42;;;;;;;4.43;1.60;;;;;;;;;;5082115;28;20421;-73
2023/12/14 07:05:09;;;;;;;3.70;2.07;;;;;;;;;;5066616;28;20425;-72
2023/12/14 07:07:36;;;;;;;3.57;2.10;;;;;;;;;;5081624;28;20431;-72
2023/12/14 07:10:04;;;;;;;6.07;3.13;;;;;;;;;;5041884;28;20468;-72
2023/12/14 07:12:31;;;;;;;5.57;2.90;;;;;;;;;;5045709;28;20928;-72
2023/12/14 07:14:58;;;;;;;4.33;3.17;;;;;;;;;;5061912;28;20436;-72
2023/12/14 07:17:25;;;;;;;5.53;3.73;;;;;;;;;;5028858;28;20488;-71
2023/12/14 07:19:53;;;;;;;5.30;2.73;;;;;;;;;;5053446;28;20422;-76
2023/12/14 07:22:22;;;;;;;3.30;2.10;;;;;;;;;;5066965;28;20421;-73
2023/12/14 07:24:49;;;;;;;4.73;2.30;;;;;;;;;;5066481;28;20437;-72
2023/12/14 07:27:25;;;;;;;3.90;2.47;;;;;;;;;;5066392;28;20531;-71
2023/12/14 07:29:51;;;;;;;4.27;2.63;;;;;;;;;;5064826;28;20429;-71
2023/12/14 07:32:18;;;;;;;6.27;3.50;;;;;;;;;;5065397;28;20494;-69
2023/12/14 07:34:45;;;;;;;8.90;4.60;;;;;;;;;;5065562;28;20428;-70
2023/12/14 07:37:15;;;;;;;10.80;5.97;;;;;;;;;;5064530;28;20775;-70
2023/12/14 07:39:42;;;;;;;12.37;7.10;;;;;;;;;;5081520;28;20501;-71
2023/12/14 07:42:09;;;;;;;13.07;7.70;;;;;;;;;;5081589;28;20926;-71
2023/12/14 07:44:37;;;;;;;16.53;9.03;;;;;;;;;;5059844;28;20464;-72
2023/12/14 07:47:04;;;;;;;14.97;9.07;;;;;;;;;;5081272;28;20425;-70
2023/12/14 07:49:32;;;;;;;18.80;10.87;;;;;;;;;;5081264;28;20911;-70
2023/12/14 07:51:59;;;;;;;19.97;11.17;;;;;;;;;;5048766;28;20526;-71
2023/12/14 07:54:28;;;;;;;15.50;9.47;;;;;;;;;;5065485;28;20943;-74
2023/12/14 07:56:55;;;;;;;15.63;8.90;;;;;;;;;;5063949;28;20510;-72
2023/12/14 07:59:23;;;;;;;12.53;7.97;;;;;;;;;;5047936;28;20847;-71
2023/12/14 08:05:49;;;;;;;13.30;7.30;;;;;;;;;;5064801;28;20399;-72
2023/12/14 08:08:16;;;;;;;12.87;6.93;;;;;;;;;;5046875;28;20526;-72
2023/12/14 08:10:43;;;;;;;10.87;6.17;;;;;;;;;;5051977;28;20951;-72
2023/12/14 08:13:10;;;;;;;11.20;6.20;;;;;;;;;;5064607;28;20460;-72
2023/12/14 08:15:36;;;;;;;11.37;5.87;;;;;;;;;;5060507;28;20491;-70
2023/12/14 08:18:04;;;;;;;8.80;5.13;;;;;;;;;;5069463;28;20475;-69
2023/12/14 08:20:31;;;;;;;13.87;7.80;;;;;;;;;;5069889;28;20963;-69
2023/12/14 08:22:58;;;;;;;10.70;6.40;;;;;;;;;;5054150;28;20429;-68
2023/12/14 08:25:25;;;;;;;7.73;5.00;;;;;;;;;;5054313;28;20186;-69
2023/12/14 08:27:52;;;;;;;8.37;6.37;;;;;;;;;;5054765;28;20424;-69
2023/12/14 08:30:19;;;;;;;5.37;3.80;;;;;;;;;;5069713;28;20441;-69
2023/12/14 08:32:46;;;;;;;6.27;4.43;;;;;;;;;;5069820;28;20183;-69
2023/12/14 08:35:12;;;;;;;8.00;5.50;;;;;;;;;;5069654;28;20487;-69
2023/12/14 08:37:39;;;;;;;4.23;2.60;;;;;;;;;;5054405;28;20951;-69
2023/12/14 08:40:07;;;;;;;3.30;2.30;;;;;;;;;;5053892;28;20515;-69
2023/12/14 08:42:34;;;;;;;7.93;5.03;;;;;;;;;;5069834;28;20191;-69
2023/12/14 08:45:01;;;;;;;4.97;2.07;;;;;;;;;;5054658;28;20191;-68
2023/12/14 08:47:28;;;;;;;4.17;2.70;;;;;;;;;;5055005;28;20174;-69
2023/12/14 08:49:55;;;;;;;4.20;2.70;;;;;;;;;;5052970;28;20186;-69
2023/12/14 08:52:22;;;;;;;6.00;3.47;;;;;;;;;;5069445;28;20248;-69
2023/12/14 08:54:49;;;;;;;7.07;3.17;;;;;;;;;;5069612;28;20630;-70
2023/12/14 08:57:16;;;;;;;5.17;2.90;;;;;;;;;;5069500;28;20229;-69
2023/12/14 08:59:42;;;;;;;6.23;3.00;;;;;;;;;;5061473;28;20218;-69
2023/12/14 09:02:10;;;;;;;6.50;3.60;;;;;;;;;;5072727;28;20331;-69
2023/12/14 09:04:37;;;;;;;4.67;2.57;;;;;;;;;;5072878;28;20190;-69
2023/12/14 09:07:04;;;;;;;2.33;1.70;;;;;;;;;;5074431;28;20645;-69
2023/12/14 09:09:32;;;;;;;2.47;1.50;;;;;;;;;;5077267;28;20186;-69
2023/12/14 09:11:59;;;;;;;2.47;1.30;;;;;;;;;;5078359;28;20234;-70
2023/12/14 09:14:26;;;;;;;2.80;2.03;;;;;;;;;;5077216;28;20185;-70
2023/12/14 09:16:53;;;;;;;1.70;1.53;;;;;;;;;;5082226;28;20232;-69
2023/12/14 09:19:20;;;;;;;3.00;1.70;;;;;;;;;;5098506;28;20213;-70
2023/12/14 09:21:47;;;;;;;2.53;1.50;;;;;;;;;;5080415;28;20174;-69
2023/12/14 09:24:13;;;;;;;2.67;1.40;;;;;;;;;;5096864;28;20189;-69
2023/12/14 09:26:40;;;;;;;1.43;1.17;;;;;;;;;;5096767;28;20247;-69
2023/12/14 09:29:07;;;;;;;1.60;1.17;;;;;;;;;;5098837;28;20215;-70
2023/12/14 09:31:34;;;;;;;2.30;1.50;;;;;;;;;;5079918;28;20185;-70
2023/12/14 09:34:03;;;;;;;2.03;1.80;;;;;;;;;;5063785;28;20181;-70
2023/12/14 09:36:30;;;;;;;1.70;1.20;;;;;;;;;;5080113;28;20181;-70
2023/12/14 09:38:57;;;;;;;3.07;1.90;;;;;;;;;;5097586;28;20258;-70
2023/12/14 09:41:24;;;;;;;1.83;1.30;;;;;;;;;;5096669;28;20196;-69
2023/12/14 09:43:51;;;;;;;1.13;0.90;;;;;;;;;;5063299;28;20181;-69
2023/12/14 09:46:19;;;;;;;1.97;1.40;;;;;;;;;;5063138;28;20528;-68
2023/12/14 09:48:47;;;;;;;2.43;1.20;;;;;;;;;;5079685;28;20182;-69
2023/12/14 09:51:15;;;;;;;1.63;1.10;;;;;;;;;;5079549;28;20201;-69
2023/12/14 09:53:43;;;;;;;1.83;1.20;;;;;;;;;;5096069;28;20185;-69
2023/12/14 09:56:09;;;;;;;2.10;1.20;;;;;;;;;;5097550;28;20182;-69
2023/12/14 09:58:36;;;;;;;1.40;1.00;;;;;;;;;;5097166;28;20201;-70
2023/12/14 10:01:11;;;;;;;2.53;1.60;;;;;;;;;;5097314;28;20279;-69
2023/12/14 10:03:38;;;;;;;1.90;1.20;;;;;;;;;;5062889;28;20663;-69
2023/12/14 10:06:05;;;;;;;1.13;0.90;;;;;;;;;;5079138;28;20185;-69
2023/12/14 10:08:32;;;;;;;1.73;1.00;;;;;;;;;;5079143;28;20276;-70
2023/12/14 10:11:00;;;;;;;2.20;1.40;;;;;;;;;;5097255;28;20485;-69
2023/12/14 10:13:37;;;;;;;4.00;1.53;;;;;;;;;;5097077;28;20178;-70
2023/12/14 10:16:04;;;;;;;1.40;1.00;;;;;;;;;;5046754;28;20193;-70
2023/12/14 10:18:31;;;;;;;1.80;1.10;;;;;;;;;;5095648;28;20212;-70
2023/12/14 10:21:00;;;;;;;2.23;1.13;;;;;;;;;;5080064;28;20280;-69
2023/12/14 10:23:28;;;;;;;2.20;1.10;;;;;;;;;;5097010;28;20267;-69
2023/12/14 10:25:55;;;;;;;3.57;1.20;;;;;;;;;;5078984;28;20196;-69
2023/12/14 10:28:22;;;;;;;1.87;1.30;;;;;;;;;;5078507;28;20197;-70
2023/12/14 10:30:49;;;;;;;6.70;4.33;;;;;;;;;;5062064;28;20196;-70
2023/12/14 10:33:16;;;;;;;4.03;2.90;;;;;;;;;;5095442;28;20200;-69
2023/12/14 10:35:45;;;;;;;3.53;2.20;;;;;;;;;;5045640;28;20196;-70
2023/12/14 10:38:12;;;;;;;3.67;2.40;;;;;;;;;;5096492;28;20229;-70
2023/12/14 10:40:43;;;;;;;2.73;2.07;;;;;;;;;;5062266;28;20712;-70
2023/12/14 10:43:10;;;;;;;3.27;2.20;;;;;;;;;;5097100;28;20191;-69
2023/12/14 10:45:37;;;;;;;3.20;2.10;;;;;;;;;;5079001;28;20184;-69
2023/12/14 10:48:04;;;;;;;1.57;1.47;;;;;;;;;;5062077;28;20312;-69
2023/12/14 10:50:31;;;;;;;2.90;2.00;;;;;;;;;;5095243;28;20280;-69
2023/12/14 10:52:58;;;;;;;2.07;1.87;;;;;;;;;;5078255;28;20684;-69
2023/12/14 10:55:33;;;;;;;3.53;2.40;;;;;;;;;;5078475;28;20533;-70
2023/12/14 10:58:01;;;;;;;4.33;2.73;;;;;;;;;;5062427;28;20170;-69
2023/12/14 11:00:28;;;;;;;3.03;2.37;;;;;;;;;;5061927;28;20648;-70
2023/12/14 11:02:56;;;;;;;3.33;2.37;;;;;;;;;;5096033;28;20185;-69
2023/12/14 11:05:28;;;;;;;5.17;2.80;;;;;;;;;;5062272;28;20192;-69
2023/12/14 11:08:03;;;;;;;3.57;2.73;;;;;;;;;;5062150;28;20186;-69
2023/12/14 11:10:37;;;;;;;3.97;2.33;;;;;;;;;;5077704;28;20559;-69
2023/12/14 11:13:22;;;;;;;5.23;3.37;;;;;;;;;;5050098;28;20169;-69
2023/12/14 11:15:50;;;;;;;5.07;3.63;;;;;;;;;;5078024;28;20182;-69
2023/12/14 11:18:17;;;;;;;4.53;3.20;;;;;;;;;;5096115;28;20235;-69
2023/12/14 11:20:47;;;;;;;7.20;2.97;;;;;;;;;;5096831;28;20196;-69
2023/12/14 11:23:24;;;;;;;4.57;2.90;;;;;;;;;;5061227;28;20180;-69
2023/12/14 11:25:52;;;;;;;6.07;3.00;;;;;;;;;;5096107;28;20185;-69
2023/12/14 11:28:24;;;;;;;6.00;3.17;;;;;;;;;;5063043;28;20178;-69
2023/12/14 11:30:54;;;;;;;11.83;5.40;;;;;;;;;;5077498;28;20193;-69
2023/12/14 11:33:22;;;;;;;13.60;6.00;;;;;;;;;;5095850;28;20186;-69
2023/12/14 11:35:50;;;;;;;8.43;4.77;;;;;;;;;;5078040;28;20190;-69
2023/12/14 11:38:18;;;;;;;10.07;4.67;;;;;;;;;;5078114;28;20232;-69
2023/12/14 11:40:45;;;;;;;7.53;4.37;;;;;;;;;;5077520;28;20269;-69
2023/12/14 11:43:12;;;;;;;8.67;4.23;;;;;;;;;;5077322;28;20181;-69
2023/12/14 11:45:39;;;;;;;8.17;3.90;;;;;;;;;;5094164;28;20190;-69
2023/12/14 11:48:10;;;;;;;7.40;3.33;;;;;;;;;;5094102;28;20211;-69
2023/12/14 11:50:37;;;;;;;7.10;3.60;;;;;;;;;;5077128;28;20191;-69
2023/12/14 11:53:05;;;;;;;9.80;4.93;;;;;;;;;;5060755;28;20186;-69
2023/12/14 11:55:32;;;;;;;10.70;5.60;;;;;;;;;;5094873;28;20264;-69
2023/12/14 11:57:59;;;;;;;10.50;5.33;;;;;;;;;;5060747;28;20189;-69
2023/12/14 12:00:26;;;;;;;11.97;6.10;;;;;;;;;;5095113;28;20604;-69
2023/12/14 12:03:12;;;;;;;10.70;5.53;;;;;;;;;;5077453;28;20197;-69
2023/12/14 12:05:42;;;;;;;7.33;4.53;;;;;;;;;;5094104;28;20193;-69
2023/12/14 12:08:10;;;;;;;6.50;4.03;;;;;;;;;;5094973;28;20181;-69
2023/12/14 12:10:38;;;;;;;6.60;4.17;;;;;;;;;;5094992;28;20177;-69
2023/12/14 12:13:05;;;;;;;6.50;3.77;;;;;;;;;;5076799;28;20250;-69
2023/12/14 12:15:35;;;;;;;4.43;3.03;;;;;;;;;;5094552;28;20580;-69
2023/12/14 12:18:03;;;;;;;3.77;2.57;;;;;;;;;;5059974;28;20679;-69
2023/12/14 12:20:30;;;;;;;3.93;2.97;;;;;;;;;;5043888;28;20213;-69
2023/12/14 12:26:56;;;;;;;7.23;2.83;;;;;;;;;;5094574;28;20512;-69
2023/12/14 12:29:23;;;;;;;6.83;3.37;;;;;;;;;;5077001;28;20181;-69
2023/12/14 12:31:51;;;;;;;7.03;3.20;;;;;;;;;;5076446;28;20529;-69
2023/12/14 12:34:18;;;;;;;4.00;3.00;;;;;;;;;;5076560;28;20237;-69
2023/12/14 12:36:45;;;;;;;4.03;2.93;;;;;;;;;;5095063;28;20268;-69
2023/12/14 12:39:12;;;;;;;6.13;3.40;;;;;;;;;;5094426;28;20194;-69
2023/12/14 12:41:38;;;;;;;4.50;3.07;;;;;;;;;;5094475;28;20193;-69
2023/12/14 12:44:05;;;;;;;3.23;2.50;;;;;;;;;;5059824;28;20211;-69
2023/12/14 12:46:33;;;;;;;5.07;2.57;;;;;;;;;;5094789;28;20178;-69
2023/12/14 12:49:00;;;;;;;2.87;2.20;;;;;;;;;;5060495;28;20192;-69
2023/12/14 12:51:28;;;;;;;6.47;3.30;;;;;;;;;;5059685;28;20193;-69
2023/12/14 12:53:55;;;;;;;4.77;2.80;;;;;;;;;;5094941;28;20190;-70
2023/12/14 12:56:35;;;;;;;3.80;2.50;;;;;;;;;;5062305;28;20300;-70
2023/12/14 12:59:02;;;;;;;3.70;2.40;;;;;;;;;;5075868;28;20216;-70
2023/12/14 13:01:35;;;;;;;4.70;3.13;;;;;;;;;;5093814;28;20715;-69
2023/12/14 13:04:04;;;;;;;7.23;3.40;;;;;;;;;;5060144;28;20184;-69
2023/12/14 13:06:31;;;;;;;7.00;4.30;;;;;;;;;;5076004;28;20211;-69
2023/12/14 13:08:57;;;;;;;8.00;4.47;;;;;;;;;;5076541;28;20214;-69
2023/12/14 13:11:25;;;;;;;7.93;4.30;;;;;;;;;;5094475;28;20209;-68
2023/12/14 13:13:52;;;;;;;9.93;5.13;;;;;;;;;;5076040;28;20196;-69
2023/12/14 13:16:19;;;;;;;7.00;4.67;;;;;;;;;;5092669;28;20189;-69
2023/12/14 13:18:45;;;;;;;5.10;3.33;;;;;;;;;;5093500;28;20197;-69
2023/12/14 13:21:12;;;;;;;7.43;3.37;;;;;;;;;;5101301;28;20277;-69
2023/12/14 13:23:40;;;;;;;4.97;3.50;;;;;;;;;;5093808;28;20192;-69
2023/12/14 13:26:08;;;;;;;4.00;2.90;;;;;;;;;;5076083;28;20198;-69
2023/12/14 13:28:35;;;;;;;4.47;3.27;;;;;;;;;;5093716;28;20185;-69
2023/12/14 13:31:02;;;;;;;4.80;3.30;;;;;;;;;;5094554;28;20254;-69
2023/12/14 13:33:29;;;;;;;6.93;4.00;;;;;;;;;;5094289;28;20212;-69
2023/12/14 13:35:56;;;;;;;5.83;3.40;;;;;;;;;;5094777;28;20430;-69
2023/12/14 13:38:23;;;;;;;6.03;3.70;;;;;;;;;;5093616;28;20535;-69
2023/12/14 13:40:51;;;;;;;6.57;4.00;;;;;;;;;;5058880;28;20472;-69
2023/12/14 13:43:18;;;;;;;4.87;3.73;;;;;;;;;;5092650;28;20654;-69
2023/12/14 13:45:45;;;;;;;4.77;3.50;;;;;;;;;;5059997;28;20442;-69
2023/12/14 13:48:16;;;;;;;6.67;3.30;;;;;;;;;;5094340;28;20170;-69
2023/12/14 13:50:44;;;;;;;5.30;3.80;;;;;;;;;;5076234;28;20255;-70
2023/12/14 13:53:11;;;;;;;5.63;3.40;;;;;;;;;;5059433;28;20288;-69
2023/12/14 13:55:38;;;;;;;4.83;3.23;;;;;;;;;;5079149;28;20909;-69
2023/12/14 13:58:05;;;;;;;5.67;3.70;;;;;;;;;;5097414;28;20801;-69
2023/12/14 14:00:34;;;;;;;8.43;5.40;;;;;;;;;;5079156;28;20497;-70
2023/12/14 14:03:03;;;;;;;6.13;4.87;;;;;;;;;;5079461;28;20430;-69
2023/12/14 14:05:30;;;;;;;7.00;4.83;;;;;;;;;;5079214;28;20419;-69
2023/12/14 14:07:57;;;;;;;5.93;4.40;;;;;;;;;;5097847;28;20418;-69
2023/12/14 14:10:24;;;;;;;6.87;4.67;;;;;;;;;;5097090;28;20514;-69
2023/12/14 14:12:51;;;;;;;6.67;4.47;;;;;;;;;;5079085;28;20438;-69
2023/12/14 14:15:19;;;;;;;5.50;4.17;;;;;;;;;;5079403;28;20514;-69
2023/12/14 14:17:51;;;;;;;7.13;4.40;;;;;;;;;;5096928;28;20451;-69
2023/12/14 14:20:35;;;;;;;6.00;4.33;;;;;;;;;;5068458;28;20458;-69
2023/12/14 14:23:02;;;;;;;10.07;4.70;;;;;;;;;;5097533;28;20418;-69
2023/12/14 14:25:29;;;;;;;6.23;4.53;;;;;;;;;;5078893;28;20433;-70
2023/12/14 14:27:58;;;;;;;7.30;4.80;;;;;;;;;;5096890;28;20424;-69
2023/12/14 14:30:25;;;;;;;9.20;6.43;;;;;;;;;;5079201;28;20486;-69
2023/12/14 14:33:10;;;;;;;13.17;8.00;;;;;;;;;;5081808;28;20380;-69
2023/12/14 14:35:37;;;;;;;14.93;9.90;;;;;;;;;;5078959;28;20458;-69
2023/12/14 14:38:04;;;;;;;12.40;8.17;;;;;;;;;;5078105;28;20983;-69
2023/12/14 14:40:31;;;;;;;16.13;9.17;;;;;;;;;;5096122;28;20444;-69
2023/12/14 14:42:58;;;;;;;16.50;9.60;;;;;;;;;;5079475;28;20436;-69
2023/12/14 14:45:26;;;;;;;15.87;9.30;;;;;;;;;;5061923;28;20440;-69
2023/12/14 14:47:53;;;;;;;14.83;8.47;;;;;;;;;;5096402;28;20415;-69
2023/12/14 14:50:20;;;;;;;19.37;10.63;;;;;;;;;;5061671;28;20431;-69
2023/12/14 14:52:48;;;;;;;22.30;12.50;;;;;;;;;;5077978;28;20451;-69
2023/12/14 14:55:15;;;;;;;19.77;12.03;;;;;;;;;;5061454;28;20434;-69
2023/12/14 14:57:42;;;;;;;25.73;14.13;;;;;;;;;;5078239;28;20423;-69
2023/12/14 15:00:26;;;;;;;27.23;14.80;;;;;;;;;;5077184;28;20820;-69
2023/12/14 15:02:53;;;;;;;28.03;14.07;;;;;;;;;;5074676;28;20926;-69
2023/12/14 15:05:20;;;;;;;19.80;11.17;;;;;;;;;;5090998;28;20412;-69
2023/12/14 15:07:47;;;;;;;22.03;13.17;;;;;;;;;;5074539;28;20511;-69
2023/12/14 15:10:13;;;;;;;10.60;7.43;;;;;;;;;;5074181;28;20771;-69
2023/12/14 15:12:40;;;;;;;12.57;7.60;;;;;;;;;;5075372;28;20499;-69
2023/12/14 15:15:07;;;;;;;19.87;11.03;;;;;;;;;;5074300;28;20464;-69
2023/12/14 15:17:36;;;;;;;21.73;13.30;;;;;;;;;;5074160;28;20633;-69
2023/12/14 15:20:04;;;;;;;23.43;14.90;;;;;;;;;;5090263;28;20469;-69
2023/12/14 15:22:31;;;;;;;26.20;16.77;;;;;;;;;;5095128;28;20461;-69
2023/12/14 15:24:59;;;;;;;26.80;18.13;;;;;;;;;;5094286;28;20440;-69
2023/12/14 15:27:26;;;;;;;27.83;15.70;;;;;;;;;;5078457;28;20433;-69
2023/12/14 15:29:53;;;;;;;41.63;23.70;;;;;;;;;;5094181;28;20455;-69